sensor_id;sensor_type;location;lat;lon;timestamp;P1;durP1;ratioP1;P2;durP2;ratioP2
68800;SDS011;55784;50.734;7.086;2023-01-13T00:02:12;0.93;;;0.10;;
68800;SDS011;55784;50.734;7.086;2023-01-13T00:04:38;0.10;;;0.00;;
68800;SDS011;55784;50.734;7.086;2023-01-13T00:07:03;0.10;;;0.00;;
68800;SDS011;55784;50.734;7.086;2023-01-13T00:09:29;0.80;;;0.10;;
68800;SDS011;55784;50.734;7.086;2023-01-13T00:11:54;0.63;;;0.00;;
68800;SDS011;55784;50.734;7.086;2023-01-13T00:14:20;0.27;;;0.00;;
68800;SDS011;55784;50.734;7.086;2023-01-13T00:16:45;0.25;;;0.00;;
68800;SDS011;55784;50.734;7.086;2023-01-13T00:19:11;1.37;;;0.10;;
68800;SDS011;55784;50.734;7.086;2023-01-13T00:21:36;0.20;;;0.00;;
68800;SDS011;55784;50.734;7.086;2023-01-13T00:24:05;1.00;;;0.10;;
68800;SDS011;55784;50.734;7.086;2023-01-13T00:26:30;0.75;;;0.00;;
68800;SDS011;55784;50.734;7.086;2023-01-13T00:29:00;0.40;;;0.05;;
68800;SDS011;55784;50.734;7.086;2023-01-13T00:31:25;0.47;;;0.00;;
68800;SDS011;55784;50.734;7.086;2023-01-13T00:33:51;0.35;;;0.00;;
68800;SDS011;55784;50.734;7.086;2023-01-13T00:36:19;1.08;;;0.10;;
68800;SDS011;55784;50.734;7.086;2023-01-13T00:38:45;0.50;;;0.00;;
68800;SDS011;55784;50.734;7.086;2023-01-13T00:41:15;1.15;;;0.10;;
68800;SDS011;55784;50.734;7.086;2023-01-13T00:43:45;1.08;;;0.10;;
68800;SDS011;55784;50.734;7.086;2023-01-13T00:46:13;0.60;;;0.10;;
68800;SDS011;55784;50.734;7.086;2023-01-13T00:48:40;1.15;;;0.10;;
68800;SDS011;55784;50.734;7.086;2023-01-13T00:51:07;1.30;;;0.00;;
68800;SDS011;55784;50.734;7.086;2023-01-13T00:53:36;0.82;;;0.00;;
68800;SDS011;55784;50.734;7.086;2023-01-13T00:56:21;0.60;;;0.00;;
68800;SDS011;55784;50.734;7.086;2023-01-13T00:58:47;0.10;;;0.00;;
68800;SDS011;55784;50.734;7.086;2023-01-13T01:01:17;0.73;;;0.10;;
68800;SDS011;55784;50.734;7.086;2023-01-13T01:03:48;0.68;;;0.10;;
68800;SDS011;55784;50.734;7.086;2023-01-13T01:06:26;0.10;;;0.00;;
68800;SDS011;55784;50.734;7.086;2023-01-13T01:08:52;0.17;;;0.00;;
68800;SDS011;55784;50.734;7.086;2023-01-13T01:11:20;1.17;;;0.10;;
68800;SDS011;55784;50.734;7.086;2023-01-13T01:13:47;0.30;;;0.00;;
68800;SDS011;55784;50.734;7.086;2023-01-13T01:16:16;1.00;;;0.10;;
68800;SDS011;55784;50.734;7.086;2023-01-13T01:18:44;0.57;;;0.10;;
68800;SDS011;55784;50.734;7.086;2023-01-13T01:21:10;0.40;;;0.00;;
68800;SDS011;55784;50.734;7.086;2023-01-13T01:23:37;0.60;;;0.10;;
68800;SDS011;55784;50.734;7.086;2023-01-13T01:26:07;0.52;;;0.00;;
68800;SDS011;55784;50.734;7.086;2023-01-13T01:28:36;1.95;;;0.22;;
68800;SDS011;55784;50.734;7.086;2023-01-13T01:31:06;3.20;;;0.30;;
68800;SDS011;55784;50.734;7.086;2023-01-13T01:33:37;4.43;;;0.30;;
68800;SDS011;55784;50.734;7.086;2023-01-13T01:36:05;1.40;;;0.20;;
68800;SDS011;55784;50.734;7.086;2023-01-13T01:38:31;1.20;;;0.10;;
68800;SDS011;55784;50.734;7.086;2023-01-13T01:40:56;0.90;;;0.10;;
68800;SDS011;55784;50.734;7.086;2023-01-13T01:43:39;1.50;;;0.10;;
68800;SDS011;55784;50.734;7.086;2023-01-13T01:52:32;0.75;;;0.10;;
68800;SDS011;55784;50.734;7.086;2023-01-13T01:54:47;1.08;;;0.00;;
68800;SDS011;55784;50.734;7.086;2023-01-13T01:57:19;0.85;;;0.00;;
68800;SDS011;55784;50.734;7.086;2023-01-13T02:00:03;0.98;;;0.00;;
68800;SDS011;55784;50.734;7.086;2023-01-13T02:02:29;1.47;;;0.00;;
68800;SDS011;55784;50.734;7.086;2023-01-13T02:04:55;1.50;;;0.00;;
68800;SDS011;55784;50.734;7.086;2023-01-13T02:07:31;0.82;;;0.00;;
68800;SDS011;55784;50.734;7.086;2023-01-13T02:10:00;1.08;;;0.10;;
68800;SDS011;55784;50.734;7.086;2023-01-13T02:12:29;0.82;;;0.10;;
68800;SDS011;55784;50.734;7.086;2023-01-13T02:25:23;2.17;;;0.10;;
68800;SDS011;55784;50.734;7.086;2023-01-13T02:31:02;3.35;;;0.40;;
68800;SDS011;55784;50.734;7.086;2023-01-13T02:39:04;1.33;;;0.10;;
68800;SDS011;55784;50.734;7.086;2023-01-13T02:41:41;0.95;;;0.08;;
68800;SDS011;55784;50.734;7.086;2023-01-13T02:44:54;1.85;;;0.10;;
68800;SDS011;55784;50.734;7.086;2023-01-13T02:47:25;1.10;;;0.08;;
68800;SDS011;55784;50.734;7.086;2023-01-13T02:49:57;0.93;;;0.03;;
68800;SDS011;55784;50.734;7.086;2023-01-13T02:52:32;0.63;;;0.10;;
68800;SDS011;55784;50.734;7.086;2023-01-13T02:55:02;0.90;;;0.10;;
68800;SDS011;55784;50.734;7.086;2023-01-13T02:57:31;0.70;;;0.10;;
68800;SDS011;55784;50.734;7.086;2023-01-13T02:59:59;1.48;;;0.10;;
68800;SDS011;55784;50.734;7.086;2023-01-13T03:02:25;1.13;;;0.30;;
68800;SDS011;55784;50.734;7.086;2023-01-13T03:04:52;1.20;;;0.10;;
68800;SDS011;55784;50.734;7.086;2023-01-13T03:15:58;1.58;;;0.20;;
68800;SDS011;55784;50.734;7.086;2023-01-13T03:18:47;1.85;;;0.20;;
68800;SDS011;55784;50.734;7.086;2023-01-13T03:23:48;1.40;;;0.10;;
68800;SDS011;55784;50.734;7.086;2023-01-13T03:26:32;1.98;;;0.10;;
68800;SDS011;55784;50.734;7.086;2023-01-13T03:29:14;3.33;;;0.10;;
68800;SDS011;55784;50.734;7.086;2023-01-13T03:31:50;3.00;;;0.15;;
68800;SDS011;55784;50.734;7.086;2023-01-13T03:34:21;1.80;;;0.10;;
68800;SDS011;55784;50.734;7.086;2023-01-13T03:36:54;5.30;;;1.25;;
68800;SDS011;55784;50.734;7.086;2023-01-13T03:39:23;2.40;;;0.32;;
68800;SDS011;55784;50.734;7.086;2023-01-13T03:41:54;1.85;;;0.10;;
68800;SDS011;55784;50.734;7.086;2023-01-13T03:44:29;2.78;;;0.30;;
68800;SDS011;55784;50.734;7.086;2023-01-13T03:49:30;3.42;;;0.10;;
68800;SDS011;55784;50.734;7.086;2023-01-13T03:52:02;2.50;;;0.20;;
68800;SDS011;55784;50.734;7.086;2023-01-13T03:54:31;4.00;;;0.30;;
68800;SDS011;55784;50.734;7.086;2023-01-13T03:57:05;4.07;;;0.40;;
68800;SDS011;55784;50.734;7.086;2023-01-13T03:59:35;3.03;;;0.20;;
68800;SDS011;55784;50.734;7.086;2023-01-13T04:02:17;4.70;;;0.40;;
68800;SDS011;55784;50.734;7.086;2023-01-13T04:04:59;2.53;;;0.32;;
68800;SDS011;55784;50.734;7.086;2023-01-13T04:10:40;3.10;;;0.30;;
68800;SDS011;55784;50.734;7.086;2023-01-13T04:13:21;3.33;;;0.33;;
68800;SDS011;55784;50.734;7.086;2023-01-13T04:15:48;5.90;;;0.38;;
68800;SDS011;55784;50.734;7.086;2023-01-13T04:18:19;4.40;;;0.50;;
68800;SDS011;55784;50.734;7.086;2023-01-13T04:20:48;4.05;;;0.43;;
68800;SDS011;55784;50.734;7.086;2023-01-13T04:23:15;4.10;;;0.40;;
68800;SDS011;55784;50.734;7.086;2023-01-13T04:25:43;4.97;;;0.40;;
68800;SDS011;55784;50.734;7.086;2023-01-13T04:28:09;5.50;;;0.60;;
68800;SDS011;55784;50.734;7.086;2023-01-13T04:30:35;3.85;;;0.50;;
68800;SDS011;55784;50.734;7.086;2023-01-13T04:33:01;7.13;;;0.70;;
68800;SDS011;55784;50.734;7.086;2023-01-13T04:35:28;5.00;;;0.40;;
68800;SDS011;55784;50.734;7.086;2023-01-13T04:37:53;6.70;;;0.60;;
68800;SDS011;55784;50.734;7.086;2023-01-13T04:40:19;6.80;;;0.67;;
68800;SDS011;55784;50.734;7.086;2023-01-13T04:42:44;8.80;;;0.63;;
68800;SDS011;55784;50.734;7.086;2023-01-13T04:45:10;5.67;;;0.63;;
68800;SDS011;55784;50.734;7.086;2023-01-13T04:47:35;5.38;;;0.57;;
68800;SDS011;55784;50.734;7.086;2023-01-13T04:50:01;6.30;;;0.50;;
68800;SDS011;55784;50.734;7.086;2023-01-13T04:52:26;6.57;;;0.80;;
68800;SDS011;55784;50.734;7.086;2023-01-13T04:54:52;6.20;;;0.70;;
68800;SDS011;55784;50.734;7.086;2023-01-13T04:57:17;5.78;;;0.60;;
68800;SDS011;55784;50.734;7.086;2023-01-13T04:59:42;7.00;;;0.50;;
68800;SDS011;55784;50.734;7.086;2023-01-13T05:02:08;6.37;;;0.67;;
68800;SDS011;55784;50.734;7.086;2023-01-13T05:04:33;4.83;;;0.50;;
68800;SDS011;55784;50.734;7.086;2023-01-13T05:06:59;4.10;;;0.40;;
68800;SDS011;55784;50.734;7.086;2023-01-13T05:09:25;5.13;;;0.60;;
68800;SDS011;55784;50.734;7.086;2023-01-13T05:11:50;5.00;;;0.60;;
68800;SDS011;55784;50.734;7.086;2023-01-13T05:14:34;6.30;;;0.50;;
68800;SDS011;55784;50.734;7.086;2023-01-13T05:17:19;5.80;;;0.60;;
68800;SDS011;55784;50.734;7.086;2023-01-13T05:19:46;6.68;;;1.00;;
68800;SDS011;55784;50.734;7.086;2023-01-13T05:22:12;6.23;;;0.50;;
68800;SDS011;55784;50.734;7.086;2023-01-13T05:24:56;5.50;;;0.43;;
68800;SDS011;55784;50.734;7.086;2023-01-13T05:27:40;6.05;;;0.70;;
68800;SDS011;55784;50.734;7.086;2023-01-13T05:30:06;14.33;;;0.73;;
68800;SDS011;55784;50.734;7.086;2023-01-13T05:32:33;5.50;;;0.50;;
68800;SDS011;55784;50.734;7.086;2023-01-13T05:34:59;5.97;;;0.70;;
68800;SDS011;55784;50.734;7.086;2023-01-13T05:37:24;8.30;;;0.70;;
68800;SDS011;55784;50.734;7.086;2023-01-13T05:39:51;4.20;;;0.90;;
68800;SDS011;55784;50.734;7.086;2023-01-13T05:42:40;6.05;;;0.43;;
68800;SDS011;55784;50.734;7.086;2023-01-13T05:45:24;7.55;;;0.70;;
68800;SDS011;55784;50.734;7.086;2023-01-13T05:47:50;8.18;;;0.60;;
68800;SDS011;55784;50.734;7.086;2023-01-13T05:50:15;4.63;;;0.50;;
68800;SDS011;55784;50.734;7.086;2023-01-13T05:52:41;6.45;;;0.60;;
68800;SDS011;55784;50.734;7.086;2023-01-13T05:55:07;4.68;;;0.60;;
68800;SDS011;55784;50.734;7.086;2023-01-13T05:57:33;5.28;;;0.55;;
68800;SDS011;55784;50.734;7.086;2023-01-13T05:59:59;4.73;;;0.57;;
68800;SDS011;55784;50.734;7.086;2023-01-13T06:02:24;6.90;;;0.60;;
68800;SDS011;55784;50.734;7.086;2023-01-13T06:04:50;5.57;;;0.60;;
68800;SDS011;55784;50.734;7.086;2023-01-13T06:07:16;6.03;;;0.57;;
68800;SDS011;55784;50.734;7.086;2023-01-13T06:09:41;4.77;;;0.60;;
68800;SDS011;55784;50.734;7.086;2023-01-13T06:12:08;5.70;;;0.80;;
68800;SDS011;55784;50.734;7.086;2023-01-13T06:14:35;4.55;;;0.70;;
68800;SDS011;55784;50.734;7.086;2023-01-13T06:19:37;4.97;;;0.60;;
68800;SDS011;55784;50.734;7.086;2023-01-13T06:22:07;6.88;;;0.70;;
68800;SDS011;55784;50.734;7.086;2023-01-13T06:24:45;3.60;;;0.50;;
68800;SDS011;55784;50.734;7.086;2023-01-13T06:27:13;5.25;;;0.63;;
68800;SDS011;55784;50.734;7.086;2023-01-13T06:29:39;4.85;;;0.60;;
68800;SDS011;55784;50.734;7.086;2023-01-13T06:32:06;4.70;;;0.40;;
68800;SDS011;55784;50.734;7.086;2023-01-13T06:34:37;4.82;;;0.60;;
68800;SDS011;55784;50.734;7.086;2023-01-13T06:37:03;5.30;;;0.57;;
68800;SDS011;55784;50.734;7.086;2023-01-13T06:39:29;5.67;;;0.60;;
68800;SDS011;55784;50.734;7.086;2023-01-13T06:41:55;4.85;;;0.50;;
68800;SDS011;55784;50.734;7.086;2023-01-13T06:44:41;5.82;;;0.80;;
68800;SDS011;55784;50.734;7.086;2023-01-13T06:47:07;6.30;;;0.70;;
68800;SDS011;55784;50.734;7.086;2023-01-13T06:49:33;4.33;;;0.67;;
68800;SDS011;55784;50.734;7.086;2023-01-13T06:51:58;5.33;;;0.70;;
68800;SDS011;55784;50.734;7.086;2023-01-13T06:54:24;7.67;;;0.90;;
68800;SDS011;55784;50.734;7.086;2023-01-13T06:56:49;6.23;;;0.73;;
68800;SDS011;55784;50.734;7.086;2023-01-13T06:59:14;4.85;;;0.70;;
68800;SDS011;55784;50.734;7.086;2023-01-13T07:01:39;5.97;;;0.70;;
68800;SDS011;55784;50.734;7.086;2023-01-13T07:04:05;6.90;;;0.80;;
68800;SDS011;55784;50.734;7.086;2023-01-13T07:06:30;5.47;;;0.70;;
68800;SDS011;55784;50.734;7.086;2023-01-13T07:08:56;4.10;;;0.63;;
68800;SDS011;55784;50.734;7.086;2023-01-13T07:11:21;5.40;;;0.77;;
68800;SDS011;55784;50.734;7.086;2023-01-13T07:13:46;4.27;;;0.70;;
68800;SDS011;55784;50.734;7.086;2023-01-13T07:16:30;4.50;;;0.52;;
68800;SDS011;55784;50.734;7.086;2023-01-13T07:18:56;6.27;;;0.60;;
68800;SDS011;55784;50.734;7.086;2023-01-13T07:21:21;4.68;;;0.80;;
68800;SDS011;55784;50.734;7.086;2023-01-13T07:23:47;5.20;;;0.50;;
68800;SDS011;55784;50.734;7.086;2023-01-13T07:26:13;2.83;;;0.50;;
68800;SDS011;55784;50.734;7.086;2023-01-13T07:28:39;2.97;;;0.38;;
68800;SDS011;55784;50.734;7.086;2023-01-13T07:31:12;4.60;;;0.60;;
68800;SDS011;55784;50.734;7.086;2023-01-13T07:33:39;4.43;;;0.60;;
68800;SDS011;55784;50.734;7.086;2023-01-13T07:36:05;4.10;;;0.53;;
68800;SDS011;55784;50.734;7.086;2023-01-13T07:38:31;4.47;;;0.50;;
68800;SDS011;55784;50.734;7.086;2023-01-13T07:40:57;3.03;;;0.50;;
68800;SDS011;55784;50.734;7.086;2023-01-13T07:43:43;4.78;;;0.60;;
68800;SDS011;55784;50.734;7.086;2023-01-13T07:46:09;4.63;;;0.57;;
68800;SDS011;55784;50.734;7.086;2023-01-13T07:48:34;4.03;;;0.57;;
68800;SDS011;55784;50.734;7.086;2023-01-13T07:51:00;5.47;;;0.80;;
68800;SDS011;55784;50.734;7.086;2023-01-13T07:53:26;5.07;;;0.60;;
68800;SDS011;55784;50.734;7.086;2023-01-13T07:55:56;3.83;;;0.50;;
68800;SDS011;55784;50.734;7.086;2023-01-13T07:58:25;3.40;;;0.70;;
68800;SDS011;55784;50.734;7.086;2023-01-13T08:00:51;3.53;;;0.40;;
68800;SDS011;55784;50.734;7.086;2023-01-13T08:03:17;2.63;;;0.40;;
68800;SDS011;55784;50.734;7.086;2023-01-13T08:05:43;3.20;;;0.60;;
68800;SDS011;55784;50.734;7.086;2023-01-13T08:08:08;3.77;;;0.70;;
68800;SDS011;55784;50.734;7.086;2023-01-13T08:10:34;5.10;;;0.57;;
68800;SDS011;55784;50.734;7.086;2023-01-13T08:12:59;5.28;;;0.95;;
68800;SDS011;55784;50.734;7.086;2023-01-13T08:15:44;3.42;;;0.30;;
68800;SDS011;55784;50.734;7.086;2023-01-13T08:18:14;4.72;;;0.50;;
68800;SDS011;55784;50.734;7.086;2023-01-13T08:20:40;4.97;;;0.60;;
68800;SDS011;55784;50.734;7.086;2023-01-13T08:23:05;5.72;;;0.68;;
68800;SDS011;55784;50.734;7.086;2023-01-13T08:25:31;5.87;;;0.60;;
68800;SDS011;55784;50.734;7.086;2023-01-13T08:27:56;4.30;;;0.60;;
68800;SDS011;55784;50.734;7.086;2023-01-13T08:30:24;4.00;;;0.50;;
68800;SDS011;55784;50.734;7.086;2023-01-13T08:32:50;3.67;;;0.52;;
68800;SDS011;55784;50.734;7.086;2023-01-13T08:35:15;4.27;;;0.53;;
68800;SDS011;55784;50.734;7.086;2023-01-13T08:37:42;5.57;;;0.77;;
68800;SDS011;55784;50.734;7.086;2023-01-13T08:40:08;6.13;;;0.90;;
68800;SDS011;55784;50.734;7.086;2023-01-13T08:42:36;8.32;;;1.10;;
68800;SDS011;55784;50.734;7.086;2023-01-13T08:45:02;5.27;;;0.70;;
68800;SDS011;55784;50.734;7.086;2023-01-13T08:47:29;4.55;;;0.65;;
68800;SDS011;55784;50.734;7.086;2023-01-13T08:49:54;12.10;;;1.13;;
68800;SDS011;55784;50.734;7.086;2023-01-13T08:52:19;5.97;;;0.85;;
68800;SDS011;55784;50.734;7.086;2023-01-13T08:54:45;6.88;;;0.85;;
68800;SDS011;55784;50.734;7.086;2023-01-13T08:57:10;10.37;;;1.03;;
68800;SDS011;55784;50.734;7.086;2023-01-13T08:59:36;8.18;;;0.90;;
68800;SDS011;55784;50.734;7.086;2023-01-13T09:02:02;4.93;;;0.80;;
68800;SDS011;55784;50.734;7.086;2023-01-13T09:04:28;7.78;;;0.80;;
68800;SDS011;55784;50.734;7.086;2023-01-13T09:06:55;8.75;;;0.70;;
68800;SDS011;55784;50.734;7.086;2023-01-13T09:09:21;6.53;;;0.80;;
68800;SDS011;55784;50.734;7.086;2023-01-13T09:11:47;7.50;;;1.23;;
68800;SDS011;55784;50.734;7.086;2023-01-13T09:14:33;8.63;;;0.88;;
68800;SDS011;55784;50.734;7.086;2023-01-13T09:17:02;10.40;;;0.90;;
68800;SDS011;55784;50.734;7.086;2023-01-13T09:19:27;10.10;;;0.80;;
68800;SDS011;55784;50.734;7.086;2023-01-13T09:21:54;10.23;;;0.90;;
68800;SDS011;55784;50.734;7.086;2023-01-13T09:24:20;9.23;;;0.90;;
68800;SDS011;55784;50.734;7.086;2023-01-13T09:26:46;7.13;;;0.98;;
68800;SDS011;55784;50.734;7.086;2023-01-13T09:29:11;6.73;;;0.80;;
68800;SDS011;55784;50.734;7.086;2023-01-13T09:31:36;7.83;;;1.10;;
68800;SDS011;55784;50.734;7.086;2023-01-13T09:34:05;7.90;;;1.37;;
68800;SDS011;55784;50.734;7.086;2023-01-13T09:36:50;6.13;;;0.80;;
68800;SDS011;55784;50.734;7.086;2023-01-13T09:39:15;7.30;;;0.80;;
68800;SDS011;55784;50.734;7.086;2023-01-13T09:41:43;8.02;;;0.70;;
68800;SDS011;55784;50.734;7.086;2023-01-13T09:44:33;7.68;;;1.23;;
68800;SDS011;55784;50.734;7.086;2023-01-13T09:47:06;9.98;;;0.80;;
68800;SDS011;55784;50.734;7.086;2023-01-13T09:52:42;9.10;;;0.82;;
68800;SDS011;55784;50.734;7.086;2023-01-13T09:57:40;9.57;;;0.80;;
68800;SDS011;55784;50.734;7.086;2023-01-13T10:00:09;8.30;;;1.00;;
68800;SDS011;55784;50.734;7.086;2023-01-13T10:03:18;8.20;;;0.70;;
68800;SDS011;55784;50.734;7.086;2023-01-13T10:05:46;7.78;;;0.85;;
68800;SDS011;55784;50.734;7.086;2023-01-13T10:08:19;8.37;;;0.97;;
68800;SDS011;55784;50.734;7.086;2023-01-13T10:10:47;6.88;;;1.00;;
68800;SDS011;55784;50.734;7.086;2023-01-13T10:13:23;4.80;;;0.75;;
68800;SDS011;55784;50.734;7.086;2023-01-13T10:15:55;9.48;;;1.35;;
68800;SDS011;55784;50.734;7.086;2023-01-13T10:18:37;7.88;;;0.98;;
68800;SDS011;55784;50.734;7.086;2023-01-13T10:27:31;9.05;;;0.90;;
68800;SDS011;55784;50.734;7.086;2023-01-13T10:32:46;9.82;;;1.27;;
68800;SDS011;55784;50.734;7.086;2023-01-13T10:35:16;11.97;;;1.60;;
68800;SDS011;55784;50.734;7.086;2023-01-13T10:37:48;8.52;;;0.80;;
68800;SDS011;55784;50.734;7.086;2023-01-13T10:40:21;5.83;;;0.80;;
68800;SDS011;55784;50.734;7.086;2023-01-13T10:42:46;7.75;;;0.88;;
68800;SDS011;55784;50.734;7.086;2023-01-13T10:45:18;9.83;;;1.00;;
68800;SDS011;55784;50.734;7.086;2023-01-13T10:48:01;8.75;;;1.10;;
68800;SDS011;55784;50.734;7.086;2023-01-13T10:50:30;9.03;;;0.97;;
68800;SDS011;55784;50.734;7.086;2023-01-13T10:53:13;8.93;;;1.13;;
68800;SDS011;55784;50.734;7.086;2023-01-13T10:55:42;11.10;;;1.10;;
68800;SDS011;55784;50.734;7.086;2023-01-13T10:58:18;7.32;;;0.88;;
68800;SDS011;55784;50.734;7.086;2023-01-13T11:00:45;8.37;;;1.10;;
68800;SDS011;55784;50.734;7.086;2023-01-13T11:03:18;7.80;;;0.90;;
68800;SDS011;55784;50.734;7.086;2023-01-13T11:05:53;8.43;;;1.13;;
68800;SDS011;55784;50.734;7.086;2023-01-13T11:08:22;7.68;;;1.00;;
68800;SDS011;55784;50.734;7.086;2023-01-13T11:10:50;9.93;;;1.17;;
68800;SDS011;55784;50.734;7.086;2023-01-13T11:13:22;9.23;;;1.00;;
68800;SDS011;55784;50.734;7.086;2023-01-13T11:16:07;7.38;;;0.82;;
68800;SDS011;55784;50.734;7.086;2023-01-13T11:27:12;7.97;;;1.07;;
68800;SDS011;55784;50.734;7.086;2023-01-13T11:32:16;10.30;;;1.98;;
68800;SDS011;55784;50.734;7.086;2023-01-13T11:34:44;14.20;;;3.53;;
68800;SDS011;55784;50.734;7.086;2023-01-13T11:37:19;10.75;;;2.30;;
68800;SDS011;55784;50.734;7.086;2023-01-13T11:39:58;15.27;;;3.47;;
68800;SDS011;55784;50.734;7.086;2023-01-13T11:42:32;14.88;;;4.03;;
68800;SDS011;55784;50.734;7.086;2023-01-13T11:47:32;8.65;;;0.90;;
68800;SDS011;55784;50.734;7.086;2023-01-13T11:49:59;6.82;;;1.13;;
68800;SDS011;55784;50.734;7.086;2023-01-13T11:52:31;7.37;;;1.10;;
68800;SDS011;55784;50.734;7.086;2023-01-13T11:55:14;8.07;;;1.15;;
68800;SDS011;55784;50.734;7.086;2023-01-13T11:57:51;7.13;;;1.02;;
68800;SDS011;55784;50.734;7.086;2023-01-13T12:00:35;9.35;;;1.45;;
68800;SDS011;55784;50.734;7.086;2023-01-13T12:03:22;12.05;;;1.48;;
68800;SDS011;55784;50.734;7.086;2023-01-13T12:11:25;12.00;;;1.50;;
68800;SDS011;55784;50.734;7.086;2023-01-13T12:14:37;20.40;;;3.55;;
68800;SDS011;55784;50.734;7.086;2023-01-13T12:20:20;8.93;;;1.70;;
68800;SDS011;55784;50.734;7.086;2023-01-13T12:22:47;20.15;;;3.90;;
68800;SDS011;55784;50.734;7.086;2023-01-13T12:25:19;28.35;;;5.90;;
68800;SDS011;55784;50.734;7.086;2023-01-13T12:27:57;12.02;;;1.83;;
68800;SDS011;55784;50.734;7.086;2023-01-13T12:30:28;7.32;;;1.52;;
68800;SDS011;55784;50.734;7.086;2023-01-13T12:33:12;9.33;;;1.40;;
68800;SDS011;55784;50.734;7.086;2023-01-13T12:35:55;7.53;;;1.20;;
68800;SDS011;55784;50.734;7.086;2023-01-13T12:38:34;13.70;;;1.65;;
68800;SDS011;55784;50.734;7.086;2023-01-13T12:41:14;10.57;;;1.05;;
68800;SDS011;55784;50.734;7.086;2023-01-13T12:43:48;8.20;;;1.10;;
68800;SDS011;55784;50.734;7.086;2023-01-13T12:46:34;7.67;;;1.13;;
68800;SDS011;55784;50.734;7.086;2023-01-13T12:49:16;9.77;;;1.88;;
68800;SDS011;55784;50.734;7.086;2023-01-13T12:52:14;9.07;;;1.85;;
68800;SDS011;55784;50.734;7.086;2023-01-13T12:57:18;7.43;;;1.27;;
68800;SDS011;55784;50.734;7.086;2023-01-13T13:02:24;8.47;;;0.97;;
68800;SDS011;55784;50.734;7.086;2023-01-13T13:04:53;7.53;;;0.93;;
68800;SDS011;55784;50.734;7.086;2023-01-13T13:07:31;8.73;;;1.35;;
68800;SDS011;55784;50.734;7.086;2023-01-13T13:10:09;8.98;;;1.50;;
68800;SDS011;55784;50.734;7.086;2023-01-13T13:12:53;9.00;;;1.45;;
68800;SDS011;55784;50.734;7.086;2023-01-13T13:15:40;10.87;;;1.43;;
68800;SDS011;55784;50.734;7.086;2023-01-13T13:20:54;8.63;;;1.17;;
68800;SDS011;55784;50.734;7.086;2023-01-13T13:23:27;9.77;;;1.33;;
68800;SDS011;55784;50.734;7.086;2023-01-13T13:37:14;6.57;;;0.88;;
68800;SDS011;55784;50.734;7.086;2023-01-13T13:40:19;6.63;;;1.00;;
68800;SDS011;55784;50.734;7.086;2023-01-13T13:43:04;5.57;;;0.77;;
68800;SDS011;55784;50.734;7.086;2023-01-13T13:45:55;4.45;;;0.60;;
68800;SDS011;55784;50.734;7.086;2023-01-13T13:48:46;6.47;;;0.80;;
68800;SDS011;55784;50.734;7.086;2023-01-13T13:51:28;6.57;;;0.88;;
68800;SDS011;55784;50.734;7.086;2023-01-13T13:54:00;3.83;;;0.52;;
68800;SDS011;55784;50.734;7.086;2023-01-13T13:56:26;6.30;;;0.73;;
68800;SDS011;55784;50.734;7.086;2023-01-13T13:58:54;6.75;;;0.80;;
68800;SDS011;55784;50.734;7.086;2023-01-13T14:01:41;7.47;;;1.00;;
68800;SDS011;55784;50.734;7.086;2023-01-13T14:04:22;9.70;;;1.10;;
68800;SDS011;55784;50.734;7.086;2023-01-13T14:06:56;8.50;;;0.88;;
68800;SDS011;55784;50.734;7.086;2023-01-13T14:09:42;7.95;;;1.38;;
68800;SDS011;55784;50.734;7.086;2023-01-13T14:12:20;7.28;;;0.90;;
68800;SDS011;55784;50.734;7.086;2023-01-13T14:14:48;5.80;;;0.90;;
68800;SDS011;55784;50.734;7.086;2023-01-13T14:17:17;7.15;;;0.90;;
68800;SDS011;55784;50.734;7.086;2023-01-13T14:20:05;6.80;;;1.25;;
68800;SDS011;55784;50.734;7.086;2023-01-13T14:22:37;6.35;;;0.85;;
68800;SDS011;55784;50.734;7.086;2023-01-13T14:25:05;5.93;;;0.60;;
68800;SDS011;55784;50.734;7.086;2023-01-13T14:27:50;7.28;;;0.88;;
68800;SDS011;55784;50.734;7.086;2023-01-13T14:30:16;8.00;;;1.00;;
68800;SDS011;55784;50.734;7.086;2023-01-13T14:32:42;8.45;;;1.00;;
68800;SDS011;55784;50.734;7.086;2023-01-13T14:35:08;10.33;;;1.50;;
68800;SDS011;55784;50.734;7.086;2023-01-13T14:37:35;10.38;;;1.15;;
68800;SDS011;55784;50.734;7.086;2023-01-13T14:40:03;9.73;;;1.10;;
68800;SDS011;55784;50.734;7.086;2023-01-13T14:42:29;10.38;;;1.30;;
68800;SDS011;55784;50.734;7.086;2023-01-13T14:44:55;9.57;;;1.03;;
68800;SDS011;55784;50.734;7.086;2023-01-13T14:52:45;8.20;;;1.08;;
68800;SDS011;55784;50.734;7.086;2023-01-13T14:55:33;8.90;;;0.88;;
68800;SDS011;55784;50.734;7.086;2023-01-13T15:00:49;8.57;;;0.90;;
68800;SDS011;55784;50.734;7.086;2023-01-13T15:03:40;8.43;;;1.00;;
68800;SDS011;55784;50.734;7.086;2023-01-13T15:07:01;7.45;;;1.05;;
68800;SDS011;55784;50.734;7.086;2023-01-13T15:09:20;8.82;;;1.38;;
68800;SDS011;55784;50.734;7.086;2023-01-13T15:15:35;7.00;;;1.02;;
68800;SDS011;55784;50.734;7.086;2023-01-13T15:22:16;8.13;;;1.25;;
68800;SDS011;55784;50.734;7.086;2023-01-13T15:35:24;6.70;;;1.00;;
68800;SDS011;55784;50.734;7.086;2023-01-13T16:04:33;8.68;;;1.30;;
68800;SDS011;55784;50.734;7.086;2023-01-13T16:18:53;8.25;;;1.20;;
68800;SDS011;55784;50.734;7.086;2023-01-13T16:28:39;7.33;;;1.07;;
68800;SDS011;55784;50.734;7.086;2023-01-13T16:31:36;13.80;;;1.67;;
68800;SDS011;55784;50.734;7.086;2023-01-13T16:51:37;10.98;;;1.70;;
68800;SDS011;55784;50.734;7.086;2023-01-13T20:45:25;9.23;;;1.45;;
68800;SDS011;55784;50.734;7.086;2023-01-13T20:48:09;9.88;;;1.40;;
68800;SDS011;55784;50.734;7.086;2023-01-13T20:50:38;8.55;;;1.30;;
68800;SDS011;55784;50.734;7.086;2023-01-13T20:53:27;10.60;;;1.40;;
68800;SDS011;55784;50.734;7.086;2023-01-13T20:55:52;7.63;;;1.40;;
68800;SDS011;55784;50.734;7.086;2023-01-13T21:14:09;10.13;;;1.73;;
68800;SDS011;55784;50.734;7.086;2023-01-13T21:24:22;12.30;;;2.03;;
68800;SDS011;55784;50.734;7.086;2023-01-13T21:27:00;12.27;;;1.80;;
68800;SDS011;55784;50.734;7.086;2023-01-13T21:29:29;9.07;;;1.50;;
68800;SDS011;55784;50.734;7.086;2023-01-13T21:32:14;12.85;;;2.13;;
68800;SDS011;55784;50.734;7.086;2023-01-13T21:34:39;11.60;;;1.70;;
68800;SDS011;55784;50.734;7.086;2023-01-13T21:37:08;9.63;;;1.40;;
68800;SDS011;55784;50.734;7.086;2023-01-13T21:39:33;11.20;;;1.40;;
68800;SDS011;55784;50.734;7.086;2023-01-13T21:41:58;13.53;;;2.00;;
68800;SDS011;55784;50.734;7.086;2023-01-13T21:44:43;10.80;;;1.40;;
68800;SDS011;55784;50.734;7.086;2023-01-13T21:47:26;10.27;;;1.47;;
68800;SDS011;55784;50.734;7.086;2023-01-13T21:50:11;13.30;;;1.80;;
68800;SDS011;55784;50.734;7.086;2023-01-13T21:52:37;10.82;;;1.48;;
68800;SDS011;55784;50.734;7.086;2023-01-13T21:55:03;13.23;;;1.48;;
68800;SDS011;55784;50.734;7.086;2023-01-13T21:57:44;11.00;;;1.50;;
68800;SDS011;55784;50.734;7.086;2023-01-13T22:00:17;12.52;;;1.70;;
68800;SDS011;55784;50.734;7.086;2023-01-13T22:02:44;14.32;;;1.70;;
68800;SDS011;55784;50.734;7.086;2023-01-13T22:05:11;8.27;;;1.17;;
68800;SDS011;55784;50.734;7.086;2023-01-13T22:07:40;13.32;;;2.20;;
68800;SDS011;55784;50.734;7.086;2023-01-13T22:10:07;9.93;;;1.60;;
68800;SDS011;55784;50.734;7.086;2023-01-13T22:12:37;12.93;;;1.55;;
68800;SDS011;55784;50.734;7.086;2023-01-13T22:15:03;10.77;;;1.50;;
68800;SDS011;55784;50.734;7.086;2023-01-13T22:17:29;9.23;;;1.40;;
68800;SDS011;55784;50.734;7.086;2023-01-13T22:19:56;13.27;;;2.10;;
68800;SDS011;55784;50.734;7.086;2023-01-13T22:22:22;11.32;;;1.60;;
68800;SDS011;55784;50.734;7.086;2023-01-13T22:24:53;10.95;;;1.27;;
68800;SDS011;55784;50.734;7.086;2023-01-13T22:27:23;12.07;;;2.05;;
68800;SDS011;55784;50.734;7.086;2023-01-13T22:29:50;9.95;;;1.50;;
68800;SDS011;55784;50.734;7.086;2023-01-13T22:32:19;13.38;;;1.85;;
68800;SDS011;55784;50.734;7.086;2023-01-13T22:42:06;13.55;;;1.80;;
68800;SDS011;55784;50.734;7.086;2023-01-13T23:42:34;12.48;;;1.42;;